createdAt,value
2018-12-30T00:03:44.421Z,81.39
2018-12-30T00:09:05.032Z,79.58
2018-12-30T00:14:24.565Z,79.29
2018-12-30T00:19:45.406Z,79.21
2018-12-30T00:25:04.963Z,79.05
2018-12-30T00:30:25.560Z,79.10
2018-12-30T00:35:44.821Z,78.69
2018-12-30T00:41:04.368Z,78.66
2018-12-30T00:46:24.112Z,78.24
2018-12-30T00:51:43.577Z,78.10
2018-12-30T00:57:02.976Z,77.45
2018-12-30T01:02:22.701Z,77.30
2018-12-30T01:07:41.910Z,76.31
2018-12-30T01:13:01.504Z,76.01
2018-12-30T01:18:21.372Z,76.17
2018-12-30T01:23:41.588Z,75.92
2018-12-30T01:29:01.462Z,75.87
2018-12-30T01:34:20.756Z,75.62
2018-12-30T01:39:40.343Z,75.56
2018-12-30T01:44:59.959Z,74.56
2018-12-30T01:50:19.511Z,74.78
2018-12-30T01:55:39.255Z,76.02
2018-12-30T02:00:58.931Z,80.24
2018-12-30T02:06:18.255Z,82.61
2018-12-30T02:11:37.422Z,83.56
2018-12-30T02:16:58.459Z,84.31
2018-12-30T02:22:17.747Z,84.83
2018-12-30T02:27:37.699Z,85.97
2018-12-30T02:32:57.463Z,86.01
2018-12-30T02:38:17.105Z,85.70
2018-12-30T02:43:36.640Z,87.03
2018-12-30T02:48:56.775Z,85.78
2018-12-30T02:54:15.876Z,85.86
2018-12-30T02:59:35.307Z,85.85
2018-12-30T03:04:54.694Z,86.01
2018-12-30T03:10:14.473Z,85.83
2018-12-30T03:15:34.643Z,85.40
2018-12-30T03:20:54.122Z,84.44
2018-12-30T03:26:13.792Z,84.47
2018-12-30T03:31:33.251Z,84.03
2018-12-30T03:36:52.335Z,84.67
2018-12-30T03:42:11.627Z,84.29
2018-12-30T03:47:31.154Z,84.35
2018-12-30T03:52:50.098Z,84.66
2018-12-30T03:58:10.458Z,84.72
2018-12-30T04:03:29.857Z,85.27
2018-12-30T04:08:49.168Z,85.51
2018-12-30T04:14:08.920Z,85.43
2018-12-30T04:19:28.332Z,85.46
2018-12-30T04:24:48.082Z,85.17
2018-12-30T04:30:07.324Z,85.65
2018-12-30T04:35:26.853Z,87.07
2018-12-30T04:40:46.043Z,87.81
2018-12-30T04:46:05.485Z,87.18
2018-12-30T04:51:24.745Z,87.30
2018-12-30T04:56:44.023Z,86.96
2018-12-30T05:02:03.255Z,87.02
2018-12-30T05:07:22.037Z,87.04
2018-12-30T05:12:41.647Z,87.65
2018-12-30T05:18:00.778Z,87.68
2018-12-30T05:23:20.598Z,87.62
2018-12-30T05:28:40.159Z,87.56
2018-12-30T05:33:59.903Z,87.89
2018-12-30T05:39:19.368Z,87.97
2018-12-30T05:44:39.086Z,87.49
2018-12-30T05:49:58.266Z,87.59
2018-12-30T05:55:17.483Z,87.33
2018-12-30T06:00:36.813Z,87.29
2018-12-30T06:05:55.902Z,87.50
2018-12-30T06:11:16.694Z,87.24
2018-12-30T06:16:35.867Z,87.15
2018-12-30T06:21:55.992Z,86.81
2018-12-30T06:27:15.644Z,86.78
2018-12-30T06:32:34.588Z,85.63
2018-12-30T06:37:54.472Z,86.48
2018-12-30T06:43:13.401Z,86.43
2018-12-30T06:48:33.445Z,86.86
2018-12-30T06:53:52.452Z,86.55
2018-12-30T06:59:12.153Z,86.45
2018-12-30T07:04:31.252Z,86.40
2018-12-30T07:09:51.743Z,86.12
2018-12-30T07:15:11.688Z,86.24
2018-12-30T07:20:31.551Z,86.32
2018-12-30T07:25:51.776Z,85.56
2018-12-30T07:31:11.556Z,86.19
2018-12-30T07:36:31.254Z,87.09
2018-12-30T07:41:50.828Z,87.22
2018-12-30T07:47:09.740Z,86.67
2018-12-30T07:52:29.604Z,86.57
2018-12-30T07:57:49.857Z,86.73
2018-12-30T08:03:11.980Z,86.50
2018-12-30T08:08:31.859Z,86.71
2018-12-30T08:13:51.546Z,86.92
2018-12-30T08:19:10.432Z,87.46
2018-12-30T08:24:30.230Z,87.37
2018-12-30T08:29:50.615Z,86.73
2018-12-30T08:35:09.723Z,87.20
2018-12-30T08:40:29.177Z,87.74
2018-12-30T08:45:48.692Z,87.60
2018-12-30T08:51:10.259Z,86.71
2018-12-30T08:56:29.091Z,86.37
2018-12-30T09:01:48.556Z,86.16
2018-12-30T09:07:07.892Z,86.11
2018-12-30T09:12:28.415Z,86.14
2018-12-30T09:17:47.227Z,86.25
2018-12-30T09:23:07.587Z,85.29
2018-12-30T09:28:27.445Z,86.20
2018-12-30T09:33:46.918Z,86.16
2018-12-30T09:39:07.359Z,86.27
2018-12-30T09:44:26.381Z,86.30
2018-12-30T09:49:46.059Z,86.70
2018-12-30T09:55:05.790Z,86.88
2018-12-30T10:00:24.874Z,87.47
2018-12-30T10:05:44.212Z,87.24
2018-12-30T10:11:04.481Z,87.03
2018-12-30T10:16:24.324Z,86.75
2018-12-30T10:21:44.991Z,86.56
2018-12-30T10:27:04.537Z,86.17
2018-12-30T10:32:24.567Z,86.25
2018-12-30T10:37:43.630Z,86.16
2018-12-30T10:43:03.362Z,85.91
2018-12-30T10:48:23.157Z,85.70
2018-12-30T10:53:43.606Z,85.83
2018-12-30T10:59:02.723Z,86.43
2018-12-30T11:04:22.558Z,86.01
2018-12-30T11:09:42.569Z,85.95
2018-12-30T11:15:01.676Z,85.78
2018-12-30T11:20:20.998Z,84.95
2018-12-30T11:25:40.380Z,86.29
2018-12-30T11:30:59.565Z,86.50
2018-12-30T11:36:19.072Z,87.13
2018-12-30T11:41:39.525Z,87.44
2018-12-30T11:46:59.042Z,87.37
2018-12-30T11:52:19.198Z,87.71
2018-12-30T11:57:39.667Z,89.00
2018-12-30T12:02:59.847Z,89.18
2018-12-30T12:08:20.401Z,88.50
2018-12-30T12:13:40.007Z,88.62
2018-12-30T12:19:01.160Z,88.74
2018-12-30T12:24:24.431Z,88.29
2018-12-30T12:29:48.135Z,88.06
2018-12-30T12:35:07.706Z,88.28
2018-12-30T12:40:27.391Z,88.46
2018-12-30T12:45:47.794Z,88.80
2018-12-30T12:51:07.256Z,87.97
2018-12-30T12:56:26.661Z,86.98
2018-12-30T13:01:45.971Z,87.25
2018-12-30T13:07:05.207Z,87.34
2018-12-30T13:12:25.326Z,86.98
2018-12-30T13:17:44.694Z,86.91
2018-12-30T13:23:04.599Z,87.42
2018-12-30T13:28:24.014Z,86.88
2018-12-30T13:33:43.359Z,87.03
2018-12-30T13:39:03.483Z,86.89
2018-12-30T13:44:23.236Z,87.32
2018-12-30T13:49:42.402Z,88.10
2018-12-30T13:55:02.196Z,87.09
2018-12-30T14:00:25.606Z,87.25
2018-12-30T14:05:45.215Z,87.05
2018-12-30T14:11:06.559Z,87.10
2018-12-30T14:16:26.561Z,87.09
2018-12-30T14:21:48.431Z,86.60
2018-12-30T14:27:08.699Z,86.29
2018-12-30T14:32:27.901Z,85.51
2018-12-30T14:37:50.372Z,84.26
2018-12-30T14:43:10.407Z,84.77
2018-12-30T14:48:29.630Z,84.80
2018-12-30T14:53:49.232Z,84.28
2018-12-30T14:59:08.801Z,83.11
2018-12-30T15:04:30.738Z,82.98
2018-12-30T15:09:51.107Z,83.04
2018-12-30T15:15:10.950Z,82.69
2018-12-30T15:20:30.585Z,83.04
2018-12-30T15:25:50.494Z,83.02
2018-12-30T15:31:09.910Z,82.85
2018-12-30T15:36:29.730Z,83.22
2018-12-30T15:41:49.994Z,82.81
2018-12-30T15:47:09.501Z,82.41
2018-12-30T15:52:29.101Z,82.23
2018-12-30T15:57:48.178Z,82.71
2018-12-30T16:03:07.688Z,82.69
2018-12-30T16:08:26.847Z,82.82
2018-12-30T16:13:46.472Z,82.74
2018-12-30T16:19:05.713Z,82.42
2018-12-30T16:24:25.456Z,82.94
2018-12-30T16:29:45.174Z,82.99
2018-12-30T16:35:04.867Z,82.63
2018-12-30T16:40:24.263Z,83.12
2018-12-30T16:45:44.200Z,82.67
2018-12-30T16:51:04.187Z,82.75
2018-12-30T16:56:23.304Z,82.53
2018-12-30T17:01:42.967Z,82.26
2018-12-30T17:07:02.474Z,82.04
2018-12-30T17:12:23.562Z,81.79
2018-12-30T17:17:43.764Z,82.03
2018-12-30T17:23:04.445Z,82.06
2018-12-30T17:28:25.894Z,81.85
2018-12-30T17:33:45.567Z,81.99
2018-12-30T17:39:06.267Z,81.95
2018-12-30T17:44:26.348Z,82.30
2018-12-30T17:49:47.365Z,81.77
2018-12-30T17:55:07.025Z,82.08
2018-12-30T18:00:26.709Z,82.14
2018-12-30T18:05:46.344Z,82.12
2018-12-30T18:11:05.964Z,81.97
2018-12-30T18:16:26.505Z,81.16
2018-12-30T18:21:47.561Z,81.43
2018-12-30T18:27:08.054Z,80.92
2018-12-30T18:32:29.369Z,81.23
2018-12-30T18:37:49.285Z,80.78
2018-12-30T18:43:09.667Z,81.06
2018-12-30T18:48:29.286Z,81.25
2018-12-30T18:53:49.195Z,81.12
2018-12-30T18:59:08.801Z,80.52
2018-12-30T19:04:28.818Z,81.13
2018-12-30T19:09:48.889Z,81.17
2018-12-30T19:15:20.382Z,81.15
2018-12-30T19:20:39.633Z,81.09
2018-12-30T19:26:01.181Z,80.63
2018-12-30T19:31:18.988Z,80.48
2018-12-30T19:36:38.695Z,80.98
2018-12-30T19:41:59.880Z,80.90
2018-12-30T19:47:21.264Z,81.10
2018-12-30T19:52:41.877Z,81.12
2018-12-30T19:58:01.988Z,81.17
2018-12-30T20:03:22.116Z,81.20
2018-12-30T20:08:42.841Z,81.68
2018-12-30T20:14:02.909Z,82.00
2018-12-30T20:19:23.366Z,82.26
2018-12-30T20:24:43.245Z,82.76
2018-12-30T20:30:02.727Z,83.03
2018-12-30T20:35:23.746Z,83.17
2018-12-30T20:40:43.039Z,83.48
2018-12-30T20:46:03.338Z,83.93
2018-12-30T20:51:23.522Z,83.82
2018-12-30T20:56:43.321Z,84.34
2018-12-30T21:02:03.868Z,84.51
2018-12-30T21:07:23.786Z,84.69
2018-12-30T21:12:43.525Z,83.91
2018-12-30T21:18:04.182Z,83.42
2018-12-30T21:23:24.430Z,83.53
2018-12-30T21:28:44.463Z,83.30
2018-12-30T21:34:05.844Z,83.09
2018-12-30T21:39:25.442Z,82.96
2018-12-30T21:44:47.647Z,83.24
2018-12-30T21:50:08.302Z,83.51
2018-12-30T21:55:27.747Z,83.57
2018-12-30T22:00:48.571Z,83.55
2018-12-30T22:06:07.884Z,83.54
2018-12-30T22:11:27.274Z,83.73
2018-12-30T22:16:46.844Z,83.99
2018-12-30T22:22:06.254Z,84.04
2018-12-30T22:27:27.084Z,83.57
2018-12-30T22:32:46.783Z,83.60
2018-12-30T22:38:06.458Z,83.54
2018-12-30T22:43:26.854Z,83.44
2018-12-30T22:48:46.980Z,83.51
2018-12-30T22:54:06.605Z,83.31
2018-12-30T22:59:26.032Z,83.72
2018-12-30T23:04:45.220Z,83.83
2018-12-30T23:10:04.607Z,84.20
2018-12-30T23:15:23.941Z,84.50
2018-12-30T23:20:43.634Z,85.08
2018-12-30T23:26:03.355Z,85.50
2018-12-30T23:31:23.340Z,86.03
2018-12-30T23:36:43.429Z,86.87
2018-12-30T23:42:02.750Z,87.18
2018-12-30T23:47:22.360Z,87.50
2018-12-30T23:52:41.896Z,87.75
2018-12-30T23:58:01.224Z,88.01
